Terminal Aerodrome Forecast
Issued by NWS Shreveport, LA

Home | Current Version | Previous Version | Text Only | Print | Product List | Glossary On
Versions: 1 2 3 4 5 6 7 8 9 10 11 12 13
000
FTUS44 KSHV 192100 AAA
TAFTXK
TAF AMD
KTXK 192109Z 1921/2018 03007KT P6SM OVC013
     FM200100 04005KT P6SM OVC007
     FM200800 05004KT 1SM BR OVC003
     FM201700 06006KT 6SM BR OVC007=

USA.gov is the U.S. government's official web portal to all federal, state and local government web resources and services.